Time;durP1;ratioP1;P1;durP2;ratioP2;P2;SDS_P1;SDS_P2;PMS_P1;PMS_P2;Temp;Humidity;BMP_temperature;BMP_pressure;BME280_temperature;BME280_humidity;BME280_pressure;Samples;Min_cycle;Max_cycle;Signal;HPM_P1;HPM_P2
2023/08/17 00:00:48;;;;;;;5.53;2.90;;;14.90;99.90;;;;;;5047842;28;20049;-63
2023/08/17 00:03:16;;;;;;;9.93;2.50;;;14.90;99.90;;;;;;5047082;28;20087;-63
2023/08/17 00:05:47;;;;;;;9.48;3.00;;;14.80;99.90;;;;;;5055971;28;20037;-62
2023/08/17 00:08:16;;;;;;;7.80;2.60;;;14.80;99.90;;;;;;5047453;28;20048;-64
2023/08/17 00:10:43;;;;;;;5.63;2.70;;;14.70;99.90;;;;;;5043658;28;20045;-63
2023/08/17 00:13:11;;;;;;;8.20;2.75;;;14.70;99.90;;;;;;5044073;28;20080;-62
2023/08/17 00:15:39;;;;;;;7.13;2.90;;;14.70;99.90;;;;;;5046826;28;20045;-62
2023/08/17 00:18:07;;;;;;;5.75;2.83;;;14.60;99.90;;;;;;5043487;28;20484;-62
2023/08/17 00:20:34;;;;;;;6.82;2.60;;;14.60;99.90;;;;;;5034640;28;20433;-62
2023/08/17 00:23:03;;;;;;;3.90;2.33;;;14.60;99.90;;;;;;5045322;28;20049;-62
2023/08/17 00:25:31;;;;;;;23.80;3.28;;;14.60;99.90;;;;;;5049796;28;20049;-62
2023/08/17 00:27:59;;;;;;;6.20;2.60;;;14.60;99.90;;;;;;5045622;28;20517;-62
2023/08/17 00:30:26;;;;;;;5.68;2.78;;;14.50;99.90;;;;;;5046881;28;20049;-62
2023/08/17 00:32:54;;;;;;;5.40;3.00;;;14.50;99.90;;;;;;5049501;28;20056;-63
2023/08/17 00:35:28;;;;;;;4.45;2.80;;;14.50;99.90;;;;;;5058860;28;20037;-62
2023/08/17 00:37:57;;;;;;;6.40;3.33;;;14.50;99.90;;;;;;5050558;28;20037;-62
2023/08/17 00:40:24;;;;;;;8.50;3.50;;;14.50;99.90;;;;;;5046404;28;20629;-63
2023/08/17 00:42:52;;;;;;;4.80;2.85;;;14.50;99.90;;;;;;5033596;28;20044;-62
2023/08/17 00:45:23;;;;;;;7.65;3.25;;;14.50;99.90;;;;;;5051283;28;20045;-64
2023/08/17 00:47:50;;;;;;;9.93;3.13;;;14.60;99.90;;;;;;5033314;28;20049;-62
2023/08/17 00:50:20;;;;;;;9.60;2.92;;;14.60;99.90;;;;;;5049614;28;20053;-63
2023/08/17 00:52:49;;;;;;;6.10;3.22;;;14.60;99.90;;;;;;5051219;28;20033;-63
2023/08/17 00:55:17;;;;;;;8.80;3.22;;;14.60;99.90;;;;;;5047040;28;20064;-62
2023/08/17 00:57:45;;;;;;;5.95;3.05;;;14.60;99.90;;;;;;5045218;28;20048;-62
2023/08/17 01:00:13;;;;;;;5.20;3.13;;;14.70;99.90;;;;;;5049995;28;20507;-62
2023/08/17 01:02:46;;;;;;;6.03;3.90;;;14.70;99.90;;;;;;5047692;28;20044;-62
2023/08/17 01:05:17;;;;;;;6.53;3.38;;;14.70;99.90;;;;;;5045869;28;20051;-62
2023/08/17 01:07:45;;;;;;;8.80;3.95;;;14.70;99.90;;;;;;5047597;28;20044;-63
2023/08/17 01:10:12;;;;;;;6.75;3.72;;;14.60;99.90;;;;;;5036835;28;20116;-62
2023/08/17 01:13:04;;;;;;;8.93;4.20;;;14.70;99.90;;;;;;5031795;28;20052;-63
2023/08/17 01:15:48;;;;;;;15.40;4.35;;;14.70;99.90;;;;;;5055801;28;20052;-61
2023/08/17 01:18:36;;;;;;;17.92;4.88;;;14.70;99.90;;;;;;5049554;28;20045;-61
2023/08/17 01:21:08;;;;;;;8.35;3.47;;;14.70;99.90;;;;;;5049862;28;20064;-62
2023/08/17 01:23:35;;;;;;;9.93;3.92;;;14.80;99.90;;;;;;5048609;28;20053;-63
2023/08/17 01:26:03;;;;;;;7.10;3.63;;;14.80;99.90;;;;;;5036140;28;20048;-61
2023/08/17 01:28:32;;;;;;;5.35;3.85;;;14.80;99.90;;;;;;5038547;28;20048;-61
2023/08/17 01:31:03;;;;;;;6.68;3.95;;;14.80;99.90;;;;;;5042715;28;20414;-62
2023/08/17 01:33:40;;;;;;;8.35;4.10;;;14.80;99.90;;;;;;5032708;28;20053;-61
2023/08/17 01:36:19;;;;;;;10.55;3.85;;;14.90;99.90;;;;;;5041351;28;20396;-61
2023/08/17 01:38:50;;;;;;;6.70;3.80;;;14.90;99.90;;;;;;5052481;28;20037;-62
2023/08/17 01:41:25;;;;;;;8.18;3.83;;;15.00;99.90;;;;;;5052722;28;20049;-62
2023/08/17 01:43:59;;;;;;;8.38;4.47;;;15.00;99.90;;;;;;5051837;28;20064;-62
2023/08/17 01:46:32;;;;;;;11.45;4.32;;;15.00;99.90;;;;;;5044024;28;20045;-62
2023/08/17 01:49:00;;;;;;;10.30;4.63;;;15.00;99.90;;;;;;5051829;28;20071;-62
2023/08/17 01:51:28;;;;;;;8.30;4.57;;;15.00;99.90;;;;;;5051597;28;20392;-61
2023/08/17 01:53:55;;;;;;;7.80;4.45;;;15.00;99.90;;;;;;5033906;28;20049;-62
2023/08/17 01:56:23;;;;;;;9.93;5.03;;;15.10;99.90;;;;;;5053235;28;20049;-62
2023/08/17 01:58:51;;;;;;;10.10;4.32;;;15.10;99.90;;;;;;5051188;28;20617;-62
2023/08/17 02:01:18;;;;;;;7.15;4.38;;;15.20;99.90;;;;;;5052064;28;20504;-61
2023/08/17 02:03:46;;;;;;;8.48;4.43;;;15.20;99.90;;;;;;5051812;28;20040;-61
2023/08/17 02:06:14;;;;;;;11.10;4.45;;;15.20;99.90;;;;;;5051891;28;20041;-62
2023/08/17 02:08:45;;;;;;;6.38;3.95;;;15.30;99.90;;;;;;5051433;28;20511;-62
2023/08/17 02:11:12;;;;;;;9.18;4.22;;;15.30;99.90;;;;;;5053046;28;20049;-62
2023/08/17 02:13:40;;;;;;;12.70;4.22;;;15.30;99.90;;;;;;5050918;28;20476;-61
2023/08/17 02:16:08;;;;;;;9.30;4.13;;;15.40;99.90;;;;;;5053418;28;20082;-62
2023/08/17 02:18:35;;;;;;;8.70;3.97;;;15.40;99.90;;;;;;5051938;28;20049;-61
2023/08/17 02:21:03;;;;;;;9.80;4.15;;;15.40;99.90;;;;;;5050829;28;20045;-61
2023/08/17 02:23:31;;;;;;;6.82;4.30;;;15.40;99.90;;;;;;5051546;28;20071;-61
2023/08/17 02:25:59;;;;;;;11.95;4.53;;;15.40;99.90;;;;;;5049117;28;20468;-61
2023/08/17 02:28:26;;;;;;;8.85;4.20;;;15.40;99.90;;;;;;5051529;28;20542;-62
2023/08/17 02:30:58;;;;;;;11.25;4.90;;;15.50;99.90;;;;;;5052866;28;20045;-62
2023/08/17 02:33:28;;;;;;;9.18;5.00;;;15.50;99.90;;;;;;5050808;28;20112;-63
2023/08/17 02:35:56;;;;;;;9.25;4.72;;;15.50;99.90;;;;;;5052562;28;20056;-63
2023/08/17 02:38:24;;;;;;;12.93;5.25;;;15.50;99.90;;;;;;5052666;28;20041;-63
2023/08/17 02:40:51;;;;;;;12.73;5.03;;;15.50;99.90;;;;;;5050493;28;20045;-63
2023/08/17 02:43:20;;;;;;;11.02;5.50;;;15.60;99.90;;;;;;5051363;28;20049;-63
2023/08/17 02:45:47;;;;;;;9.57;4.93;;;15.70;99.90;;;;;;5051536;28;20045;-62
2023/08/17 02:48:15;;;;;;;12.20;5.07;;;15.70;99.90;;;;;;5052521;28;20045;-63
2023/08/17 02:50:42;;;;;;;8.88;5.05;;;15.80;99.90;;;;;;5051659;28;20052;-63
2023/08/17 02:53:10;;;;;;;11.88;5.10;;;15.80;99.90;;;;;;5050999;28;20048;-62
2023/08/17 02:55:38;;;;;;;13.27;5.85;;;15.90;99.90;;;;;;5049465;28;20045;-62
2023/08/17 02:58:08;;;;;;;8.25;4.90;;;15.90;99.90;;;;;;5051234;28;20041;-62
2023/08/17 03:00:35;;;;;;;11.25;5.63;;;16.00;99.90;;;;;;5050440;28;20045;-62
2023/08/17 03:03:03;;;;;;;13.15;5.35;;;16.00;99.90;;;;;;5046073;28;20045;-62
2023/08/17 03:05:31;;;;;;;17.52;6.35;;;16.00;99.90;;;;;;5064221;28;20045;-62
2023/08/17 03:07:58;;;;;;;12.38;5.07;;;16.00;99.90;;;;;;5051300;28;20057;-63
2023/08/17 03:10:27;;;;;;;11.25;5.45;;;16.00;99.90;;;;;;5048134;28;20053;-62
2023/08/17 03:12:54;;;;;;;13.18;4.75;;;16.00;99.90;;;;;;5051192;28;20041;-62
2023/08/17 03:15:22;;;;;;;11.25;5.20;;;15.90;99.90;;;;;;5050624;28;20059;-63
2023/08/17 03:17:50;;;;;;;14.82;5.53;;;15.90;99.90;;;;;;5049770;28;20048;-62
2023/08/17 03:20:18;;;;;;;9.40;5.60;;;15.90;99.90;;;;;;5050661;28;20492;-61
2023/08/17 03:22:46;;;;;;;13.23;6.63;;;15.80;99.90;;;;;;5049709;28;20040;-62
2023/08/17 03:25:13;;;;;;;10.68;5.90;;;15.90;99.90;;;;;;5050183;28;20056;-62
2023/08/17 03:27:42;;;;;;;12.07;5.57;;;15.80;99.90;;;;;;5050597;28;20417;-62
2023/08/17 03:30:10;;;;;;;14.40;5.80;;;15.80;99.90;;;;;;5049521;28;20060;-62
2023/08/17 03:32:38;;;;;;;13.45;5.75;;;15.70;99.90;;;;;;5050459;28;20041;-62
2023/08/17 03:35:06;;;;;;;11.13;6.20;;;15.70;99.90;;;;;;5047407;28;20045;-61
2023/08/17 03:37:34;;;;;;;10.45;5.85;;;15.70;99.90;;;;;;5047197;28;20404;-61
2023/08/17 03:40:02;;;;;;;11.65;6.00;;;15.60;99.90;;;;;;5049625;28;20128;-62
2023/08/17 03:42:31;;;;;;;11.55;6.07;;;15.60;99.90;;;;;;5050219;28;20045;-61
2023/08/17 03:45:01;;;;;;;7.85;4.93;;;15.60;99.90;;;;;;5049201;28;20041;-61
2023/08/17 03:47:30;;;;;;;10.90;5.75;;;15.60;99.90;;;;;;5050278;28;20049;-63
2023/08/17 03:49:57;;;;;;;10.05;5.80;;;15.50;99.90;;;;;;5049826;28;20480;-62
2023/08/17 03:52:25;;;;;;;14.32;5.70;;;15.50;99.90;;;;;;5050190;28;20049;-62
2023/08/17 03:54:53;;;;;;;12.73;5.75;;;15.50;99.90;;;;;;5048004;28;20060;-62
2023/08/17 03:57:21;;;;;;;14.50;6.75;;;15.50;99.90;;;;;;5050063;28;20045;-61
2023/08/17 03:59:51;;;;;;;;;;;15.50;99.90;;;;;;5050521;28;20052;-61
2023/08/17 04:02:19;;;;;;;8.80;6.15;;;15.40;99.90;;;;;;5049056;28;19920;-61
2023/08/17 04:04:47;;;;;;;11.80;6.25;;;15.40;99.90;;;;;;5050964;28;20052;-62
2023/08/17 04:07:22;;;;;;;13.05;6.45;;;15.30;99.90;;;;;;5050224;28;20049;-62
2023/08/17 04:09:53;;;;;;;9.93;5.85;;;15.30;99.90;;;;;;5049844;28;20041;-61
2023/08/17 04:12:21;;;;;;;9.88;5.63;;;15.30;99.90;;;;;;5050713;28;20479;-62
2023/08/17 04:14:48;;;;;;;11.63;5.95;;;15.30;99.90;;;;;;5051145;28;20049;-62
2023/08/17 04:17:16;;;;;;;15.40;6.68;;;15.30;99.90;;;;;;5050308;28;20071;-62
2023/08/17 04:19:44;;;;;;;11.02;6.30;;;15.20;99.90;;;;;;5049714;28;20049;-62
2023/08/17 04:22:12;;;;;;;16.95;6.63;;;15.20;99.90;;;;;;5050681;28;20049;-62
2023/08/17 04:24:40;;;;;;;11.95;6.13;;;15.20;99.90;;;;;;5048260;28;20426;-61
2023/08/17 04:27:08;;;;;;;11.10;6.40;;;15.20;99.90;;;;;;5050157;28;20045;-62
2023/08/17 04:29:37;;;;;;;12.10;6.05;;;15.20;99.90;;;;;;5049114;28;20049;-62
2023/08/17 04:32:05;;;;;;;11.93;6.63;;;15.20;99.90;;;;;;5049529;28;20109;-61
2023/08/17 04:34:33;;;;;;;12.43;6.50;;;15.10;99.90;;;;;;5048986;28;20037;-62
2023/08/17 04:37:02;;;;;;;14.85;6.85;;;15.10;99.90;;;;;;5049876;28;20049;-62
2023/08/17 04:39:29;;;;;;;12.32;6.55;;;15.10;99.90;;;;;;5049582;28;20045;-62
2023/08/17 04:41:58;;;;;;;16.17;7.15;;;15.10;99.90;;;;;;5048792;28;20048;-62
2023/08/17 04:44:31;;;;;;;15.15;7.38;;;15.10;99.90;;;;;;5029802;28;20072;-62
2023/08/17 04:47:00;;;;;;;12.15;7.30;;;15.10;99.90;;;;;;5046639;28;20041;-63
2023/08/17 04:49:28;;;;;;;12.50;7.25;;;15.10;99.90;;;;;;5040130;28;20065;-62
2023/08/17 04:51:55;;;;;;;11.68;7.25;;;15.10;99.90;;;;;;5033522;28;20112;-62
2023/08/17 04:54:23;;;;;;;16.33;6.93;;;15.10;99.90;;;;;;5045937;28;20049;-63
2023/08/17 04:56:51;;;;;;;16.58;7.85;;;15.10;99.90;;;;;;5044112;28;20396;-62
2023/08/17 04:59:19;;;;;;;13.27;7.75;;;15.10;99.90;;;;;;5039517;28;20046;-62
2023/08/17 05:01:47;;;;;;;19.08;8.57;;;15.10;99.90;;;;;;5025581;28;20057;-64
2023/08/17 05:04:15;;;;;;;13.13;7.70;;;15.10;99.90;;;;;;5035842;28;20056;-63
2023/08/17 05:06:43;;;;;;;15.05;7.32;;;15.10;99.90;;;;;;5035509;28;20045;-63
2023/08/17 05:09:12;;;;;;;14.35;8.50;;;15.10;99.90;;;;;;5019440;28;20063;-63
2023/08/17 05:11:40;;;;;;;17.33;7.85;;;15.10;99.90;;;;;;5043296;28;20052;-63
2023/08/17 05:14:09;;;;;;;17.00;8.65;;;15.20;99.90;;;;;;5042499;28;20045;-62
2023/08/17 05:16:36;;;;;;;15.00;7.45;;;15.20;99.90;;;;;;5042578;28;20079;-63
2023/08/17 05:19:04;;;;;;;17.15;7.53;;;15.30;99.90;;;;;;5062153;28;20044;-62
2023/08/17 05:21:35;;;;;;;15.65;7.82;;;15.30;99.90;;;;;;5043588;28;20041;-62
2023/08/17 05:24:04;;;;;;;15.80;7.50;;;15.30;99.90;;;;;;5046063;28;20049;-62
2023/08/17 05:26:32;;;;;;;15.13;7.97;;;15.40;99.90;;;;;;5045663;28;20396;-62
2023/08/17 05:29:00;;;;;;;12.13;6.60;;;15.40;99.90;;;;;;5049288;28;20491;-62
2023/08/17 05:31:28;;;;;;;17.42;7.13;;;15.50;99.90;;;;;;5048815;28;20500;-63
2023/08/17 05:33:56;;;;;;;14.45;7.22;;;15.50;99.90;;;;;;5048850;28;20345;-62
2023/08/17 05:36:25;;;;;;;17.77;7.03;;;15.50;99.90;;;;;;5046465;28;20049;-62
2023/08/17 05:38:53;;;;;;;14.10;7.25;;;15.60;99.90;;;;;;5046710;28;20049;-63
2023/08/17 05:41:21;;;;;;;14.85;7.35;;;15.60;99.90;;;;;;5044612;28;20041;-62
2023/08/17 05:43:51;;;;;;;10.38;6.55;;;15.70;99.90;;;;;;5046915;28;20049;-62
2023/08/17 05:46:24;;;;;;;13.80;7.20;;;15.70;99.90;;;;;;5032044;28;20049;-63
2023/08/17 05:48:52;;;;;;;12.90;6.63;;;15.70;99.90;;;;;;5049853;28;20411;-62
2023/08/17 05:51:20;;;;;;;15.80;6.63;;;15.70;99.90;;;;;;5040683;28;20045;-62
2023/08/17 05:53:48;;;;;;;10.60;6.32;;;15.70;99.90;;;;;;5066643;28;20487;-61
2023/08/17 05:56:15;;;;;;;13.63;6.45;;;15.80;99.90;;;;;;5053373;28;20064;-63
2023/08/17 05:58:43;;;;;;;12.43;6.93;;;15.80;99.90;;;;;;5044621;28;20064;-63
2023/08/17 06:01:11;;;;;;;16.05;6.47;;;15.80;99.90;;;;;;5046886;28;20059;-63
2023/08/17 06:03:39;;;;;;;10.57;6.32;;;15.80;99.90;;;;;;5045532;28;20044;-62
2023/08/17 06:06:07;;;;;;;15.00;6.50;;;15.80;99.90;;;;;;5040049;28;20529;-63
2023/08/17 06:08:35;;;;;;;11.52;5.78;;;15.90;99.90;;;;;;5041072;28;20500;-63
2023/08/17 06:11:04;;;;;;;10.82;5.40;;;15.80;99.90;;;;;;5048074;28;20394;-63
2023/08/17 06:13:31;;;;;;;16.38;6.40;;;15.90;99.90;;;;;;5048575;28;20048;-62
2023/08/17 06:15:59;;;;;;;17.05;6.13;;;15.90;99.90;;;;;;5045225;28;20052;-63
2023/08/17 06:18:27;;;;;;;14.13;5.75;;;15.90;99.90;;;;;;5049482;28;20049;-63
2023/08/17 06:20:55;;;;;;;10.77;6.03;;;16.00;99.90;;;;;;5042601;28;20476;-63
2023/08/17 06:23:24;;;;;;;11.48;6.45;;;16.00;99.90;;;;;;5039247;28;20052;-62
2023/08/17 06:25:55;;;;;;;14.35;6.40;;;16.00;99.90;;;;;;5045510;28;20033;-62
2023/08/17 06:28:23;;;;;;;11.95;6.65;;;16.10;99.90;;;;;;5051681;28;20049;-63
2023/08/17 06:30:55;;;;;;;11.45;6.45;;;16.10;99.90;;;;;;5042677;28;20041;-63
2023/08/17 06:33:23;;;;;;;13.68;5.72;;;16.20;99.90;;;;;;5047621;28;20064;-62
2023/08/17 06:35:51;;;;;;;12.48;6.55;;;16.30;99.90;;;;;;5031924;28;20042;-63
2023/08/17 06:38:21;;;;;;;11.70;6.65;;;16.30;99.90;;;;;;5038374;28;20045;-63
2023/08/17 06:40:49;;;;;;;16.38;6.90;;;16.40;99.90;;;;;;5030514;28;20053;-62
2023/08/17 06:43:17;;;;;;;11.23;6.80;;;16.40;99.90;;;;;;5045276;28;20056;-62
2023/08/17 06:45:45;;;;;;;11.13;5.75;;;16.50;99.90;;;;;;5047372;28;20048;-62
2023/08/17 06:48:13;;;;;;;10.52;6.05;;;16.50;99.90;;;;;;5048987;28;20401;-63
2023/08/17 06:50:41;;;;;;;18.20;6.07;;;16.60;99.90;;;;;;5044105;28;20108;-62
2023/08/17 06:53:09;;;;;;;17.38;6.03;;;16.70;99.90;;;;;;5039862;28;20049;-62
2023/08/17 06:55:38;;;;;;;14.63;6.37;;;16.70;99.90;;;;;;5044916;28;20033;-62
2023/08/17 06:58:05;;;;;;;12.80;6.60;;;16.80;99.90;;;;;;5038320;28;20056;-62
2023/08/17 07:00:41;;;;;;;13.98;6.55;;;16.80;99.90;;;;;;5044283;28;20045;-62
2023/08/17 07:03:08;;;;;;;13.60;7.20;;;16.90;99.90;;;;;;5044274;28;20059;-63
2023/08/17 07:05:36;;;;;;;14.05;6.45;;;16.90;99.90;;;;;;5032598;28;20037;-62
2023/08/17 07:08:04;;;;;;;13.88;7.18;;;17.00;99.90;;;;;;5031838;28;20040;-62
2023/08/17 07:10:32;;;;;;;13.65;7.50;;;17.00;99.90;;;;;;5044330;28;20044;-63
2023/08/17 07:13:03;;;;;;;9.77;6.43;;;17.00;99.90;;;;;;5042719;28;20051;-63
2023/08/17 07:15:31;;;;;;;9.93;6.30;;;17.10;99.90;;;;;;5045323;28;20037;-62
2023/08/17 07:17:59;;;;;;;13.20;6.25;;;17.10;99.90;;;;;;5039394;28;20041;-64
2023/08/17 07:20:27;;;;;;;10.98;5.93;;;17.10;99.90;;;;;;5042790;28;20053;-64
2023/08/17 07:22:55;;;;;;;11.45;5.20;;;17.10;99.90;;;;;;5030868;28;20366;-64
2023/08/17 07:25:23;;;;;;;17.65;5.88;;;17.10;99.90;;;;;;5044471;28;20052;-63
2023/08/17 07:27:50;;;;;;;16.13;5.93;;;17.20;99.90;;;;;;5043125;28;20040;-63
2023/08/17 07:30:18;;;;;;;12.50;6.07;;;17.20;99.90;;;;;;5042734;28;20057;-63
2023/08/17 07:32:46;;;;;;;14.70;5.75;;;17.10;99.90;;;;;;5044565;28;20500;-63
2023/08/17 07:35:15;;;;;;;12.20;6.25;;;17.20;99.90;;;;;;5044784;28;20049;-63
2023/08/17 07:37:43;;;;;;;17.25;6.55;;;17.20;99.90;;;;;;5040311;28;20507;-64
2023/08/17 07:40:25;;;;;;;14.45;5.47;;;17.20;99.90;;;;;;5030466;28;20054;-64
2023/08/17 07:42:53;;;;;;;12.50;5.63;;;17.30;99.90;;;;;;5042795;28;20476;-64
2023/08/17 07:45:21;;;;;;;14.73;5.82;;;17.40;99.90;;;;;;5042544;28;20068;-63
2023/08/17 07:47:48;;;;;;;14.32;5.88;;;17.40;99.90;;;;;;5042142;28;20056;-66
2023/08/17 07:50:16;;;;;;;13.60;5.50;;;17.50;99.90;;;;;;5045255;28;20538;-63
2023/08/17 07:52:44;;;;;;;12.35;5.57;;;17.50;99.90;;;;;;5038114;28;20052;-64
2023/08/17 07:55:12;;;;;;;17.98;5.43;;;17.60;99.90;;;;;;5041317;28;20052;-65
2023/08/17 07:57:40;;;;;;;12.52;5.28;;;17.70;99.90;;;;;;5044354;28;20350;-63
2023/08/17 08:00:08;;;;;;;11.02;4.75;;;17.80;99.90;;;;;;5041504;28;20063;-62
2023/08/17 08:02:36;;;;;;;10.15;5.10;;;17.90;99.90;;;;;;5042707;28;20045;-63
2023/08/17 08:05:04;;;;;;;9.95;4.90;;;18.10;99.90;;;;;;5044093;28;20044;-63
2023/08/17 08:07:32;;;;;;;9.75;5.00;;;18.20;99.90;;;;;;5041560;28;20385;-63
2023/08/17 08:09:59;;;;;;;10.18;4.43;;;18.20;99.90;;;;;;5028714;28;20124;-64
2023/08/17 08:12:27;;;;;;;12.95;4.63;;;18.30;99.90;;;;;;5029554;28;20053;-64
2023/08/17 08:14:55;;;;;;;9.90;4.93;;;18.30;99.90;;;;;;5044680;28;20044;-64
2023/08/17 08:17:23;;;;;;;13.32;4.88;;;18.40;99.90;;;;;;5043598;28;20515;-64
2023/08/17 08:19:51;;;;;;;9.85;4.57;;;18.40;99.90;;;;;;5047254;28;20488;-63
2023/08/17 08:22:21;;;;;;;8.90;5.28;;;18.50;99.90;;;;;;5042882;28;20060;-63
2023/08/17 08:24:49;;;;;;;9.80;4.70;;;18.60;99.90;;;;;;5039358;28;20048;-63
2023/08/17 08:27:17;;;;;;;12.23;5.32;;;18.70;99.90;;;;;;5028288;28;20037;-63
2023/08/17 08:29:45;;;;;;;7.40;4.72;;;18.60;99.90;;;;;;5048047;28;20365;-64
2023/08/17 08:32:13;;;;;;;11.13;4.47;;;18.70;99.90;;;;;;5044466;28;20526;-64
2023/08/17 08:34:40;;;;;;;9.93;4.47;;;18.70;99.90;;;;;;5044949;28;20068;-64
2023/08/17 08:37:08;;;;;;;16.20;4.35;;;18.60;99.90;;;;;;5046342;28;20056;-64
2023/08/17 08:39:53;;;;;;;8.63;3.97;;;18.60;99.90;;;;;;5042200;28;20053;-64
2023/08/17 08:42:22;;;;;;;11.10;4.97;;;18.60;99.90;;;;;;5042939;28;21120;-64
2023/08/17 08:44:50;;;;;;;12.80;5.75;;;18.60;99.90;;;;;;5042300;28;20420;-63
2023/08/17 08:47:24;;;;;;;11.30;5.07;;;18.60;99.90;;;;;;5025905;28;20731;-63
2023/08/17 08:49:55;;;;;;;11.45;4.43;;;18.70;99.90;;;;;;5033202;28;20497;-63
2023/08/17 08:52:48;;;;;;;12.30;5.00;;;18.70;99.90;;;;;;5041710;28;20060;-64
2023/08/17 08:55:18;;;;;;;11.27;4.85;;;18.60;99.90;;;;;;5050347;28;20412;-64
2023/08/17 08:57:49;;;;;;;14.48;4.57;;;18.60;99.90;;;;;;5049923;28;20049;-64
2023/08/17 09:00:19;;;;;;;12.95;4.80;;;18.60;99.90;;;;;;5042886;28;20048;-63
2023/08/17 09:02:50;;;;;;;8.13;4.40;;;18.60;99.90;;;;;;5049422;28;20049;-63
2023/08/17 09:05:21;;;;;;;11.45;5.47;;;18.60;99.90;;;;;;5038542;28;20041;-64
2023/08/17 09:07:50;;;;;;;8.00;4.45;;;18.60;99.90;;;;;;5042896;28;20049;-63
2023/08/17 09:10:18;;;;;;;12.40;4.45;;;18.60;99.90;;;;;;5038963;28;20041;-63
2023/08/17 09:12:47;;;;;;;10.45;4.70;;;18.70;99.90;;;;;;5050699;28;20048;-64
2023/08/17 09:15:16;;;;;;;;;;;18.70;99.90;;;;;;5048073;28;20384;-64
2023/08/17 09:17:44;;;;;;;12.23;3.85;;;18.70;99.90;;;;;;5050644;28;19921;-64
2023/08/17 09:20:12;;;;;;;5.95;3.80;;;18.80;99.90;;;;;;5045822;28;20041;-63
2023/08/17 09:22:44;;;;;;;13.38;4.70;;;18.90;99.90;;;;;;5046940;28;20432;-64
2023/08/17 09:25:25;;;;;;;8.15;4.07;;;18.90;99.90;;;;;;5037397;28;20045;-63
2023/08/17 09:27:53;;;;;;;10.80;4.45;;;19.00;99.90;;;;;;5041726;28;20057;-63
2023/08/17 09:30:20;;;;;;;13.48;4.05;;;19.00;99.90;;;;;;5041984;28;20128;-63
2023/08/17 09:32:51;;;;;;;10.15;4.38;;;19.10;99.90;;;;;;5037761;28;20045;-63
2023/08/17 09:35:19;;;;;;;7.68;3.65;;;19.10;99.90;;;;;;5046253;28;20049;-66
2023/08/17 09:37:48;;;;;;;7.80;3.80;;;19.20;99.90;;;;;;5044699;28;20697;-63
2023/08/17 09:40:16;;;;;;;8.68;3.80;;;19.20;99.90;;;;;;5030518;28;20543;-64
2023/08/17 09:42:49;;;;;;;8.80;3.85;;;19.30;99.90;;;;;;5053292;28;20391;-63
2023/08/17 09:45:17;;;;;;;8.95;4.68;;;19.30;99.90;;;;;;5049355;28;20044;-64
2023/08/17 09:47:46;;;;;;;11.73;4.47;;;19.30;99.90;;;;;;5055106;28;20502;-63
2023/08/17 09:50:14;;;;;;;6.07;3.30;;;19.50;99.90;;;;;;5041535;28;20048;-64
2023/08/17 09:52:42;;;;;;;5.03;3.10;;;19.60;99.90;;;;;;5035825;28;20484;-64
2023/08/17 09:55:11;;;;;;;7.65;3.22;;;19.70;99.90;;;;;;5041090;28;20049;-64
2023/08/17 09:57:41;;;;;;;9.30;3.90;;;19.80;99.90;;;;;;5049652;28;20500;-64
2023/08/17 10:00:09;;;;;;;8.10;3.42;;;19.80;99.90;;;;;;5048754;28;20049;-64
2023/08/17 10:02:37;;;;;;;4.20;2.90;;;19.90;99.90;;;;;;5047462;28;20056;-64
2023/08/17 10:05:09;;;;;;;16.40;3.97;;;20.00;99.90;;;;;;5045911;28;20415;-63
2023/08/17 10:07:40;;;;;;;9.00;3.08;;;20.10;99.90;;;;;;5031880;28;20076;-65
2023/08/17 10:10:10;;;;;;;4.95;2.92;;;20.10;99.90;;;;;;5030826;28;20053;-65
2023/08/17 10:12:46;;;;;;;8.60;2.80;;;20.20;99.90;;;;;;5049849;28;20041;-65
2023/08/17 10:15:18;;;;;;;6.80;3.08;;;20.30;99.90;;;;;;5048899;28;20041;-64
2023/08/17 10:17:52;;;;;;;17.88;3.63;;;20.30;99.90;;;;;;5048553;28;20045;-64
2023/08/17 10:20:23;;;;;;;9.23;3.50;;;20.20;99.90;;;;;;5049637;28;20056;-65
2023/08/17 10:23:12;;;;;;;6.93;2.95;;;20.30;99.90;;;;;;5047589;28;20049;-63
2023/08/17 10:25:42;;;;;;;10.60;3.10;;;20.30;99.90;;;;;;5028668;28;20485;-64
2023/08/17 10:28:10;;;;;;;8.38;2.72;;;20.50;99.90;;;;;;5037922;28;20075;-64
2023/08/17 10:30:39;;;;;;;8.13;3.08;;;20.60;99.90;;;;;;5047625;28;20056;-64
2023/08/17 10:33:07;;;;;;;5.82;2.67;;;20.90;99.90;;;;;;5049111;28;20056;-64
2023/08/17 10:35:38;;;;;;;7.43;3.08;;;21.10;99.90;;;;;;5048301;28;20512;-63
2023/08/17 10:38:06;;;;;;;8.95;2.88;;;21.30;99.90;;;;;;5055548;28;20463;-64
2023/08/17 10:40:40;;;;;;;9.35;2.28;;;21.30;99.90;;;;;;5036927;28;20048;-67
2023/08/17 10:43:09;;;;;;;8.73;2.20;;;21.40;99.90;;;;;;5050967;28;20041;-64
2023/08/17 10:45:38;;;;;;;6.45;2.30;;;21.40;99.90;;;;;;5031899;28;20060;-64
2023/08/17 10:48:06;;;;;;;;;;;21.60;99.90;;;;;;5045584;28;20048;-65
2023/08/17 10:50:39;;;;;;;6.53;2.10;;;21.70;99.90;;;;;;5045716;28;19932;-64
2023/08/17 10:53:12;;;;;;;4.97;2.20;;;21.80;99.90;;;;;;5045113;28;20040;-65
2023/08/17 10:55:51;;;;;;;7.30;2.50;;;21.90;99.90;;;;;;5023809;28;20041;-65
2023/08/17 10:58:19;;;;;;;7.43;2.08;;;22.00;99.90;;;;;;5045965;28;20052;-64
2023/08/17 11:00:54;;;;;;;4.38;1.77;;;22.00;99.90;;;;;;5039681;28;20068;-64
2023/08/17 11:03:24;;;;;;;5.70;1.88;;;22.10;99.90;;;;;;5048610;28;20507;-64
2023/08/17 11:05:56;;;;;;;14.43;2.03;;;22.20;99.90;;;;;;5016693;28;20034;-65
2023/08/17 11:08:27;;;;;;;6.00;1.90;;;22.30;99.90;;;;;;5037213;28;20049;-65
2023/08/17 11:11:04;;;;;;;5.97;1.92;;;22.40;99.90;;;;;;5028585;28;20306;-64
2023/08/17 11:13:34;;;;;;;4.75;1.55;;;22.40;99.90;;;;;;5043966;28;20048;-63
2023/08/17 11:16:03;;;;;;;16.00;2.03;;;22.40;99.90;;;;;;5033399;28;20044;-65
2023/08/17 11:18:32;;;;;;;;;;;22.30;99.90;;;;;;5024437;28;20041;-65
2023/08/17 11:21:03;;;;;;;9.15;1.90;;;22.30;99.90;;;;;;5038264;28;19925;-65
2023/08/17 11:23:32;;;;;;;6.10;1.55;;;22.10;99.90;;;;;;5047389;28;20054;-64
2023/08/17 11:26:01;;;;;;;6.97;1.63;;;21.90;99.90;;;;;;5028691;28;20485;-63
2023/08/17 11:28:36;;;;;;;6.45;1.63;;;21.80;99.90;;;;;;5038928;28;20049;-64
2023/08/17 11:31:12;;;;;;;2.10;1.20;;;21.70;99.90;;;;;;5048487;28;20040;-64
2023/08/17 11:33:41;;;;;;;4.03;1.25;;;21.60;99.90;;;;;;5046833;28;20060;-65
2023/08/17 11:36:09;;;;;;;3.13;0.90;;;21.60;99.90;;;;;;5046811;28;20055;-64
2023/08/17 11:38:39;;;;;;;5.40;1.42;;;21.80;99.90;;;;;;5058489;28;20048;-63
2023/08/17 11:41:10;;;;;;;5.25;1.20;;;22.00;99.90;;;;;;5028465;28;20511;-63
2023/08/17 11:43:47;;;;;;;;;;;22.00;99.90;;;;;;5042754;28;20063;-61
2023/08/17 11:46:15;;;;;;;2.28;0.85;;;22.20;99.90;;;;;;5048131;28;20619;-63
2023/08/17 11:48:43;;;;;;;3.67;1.02;;;22.40;99.90;;;;;;5045348;28;20049;-63
2023/08/17 11:51:11;;;;;;;3.78;1.15;;;22.60;99.90;;;;;;5036662;28;20060;-63
2023/08/17 11:53:40;;;;;;;3.95;1.10;;;22.90;99.90;;;;;;5041637;28;20528;-62
2023/08/17 11:56:08;;;;;;;7.45;1.77;;;23.10;99.90;;;;;;5028177;28;20053;-63
2023/08/17 11:58:46;;;;;;;4.85;1.00;;;23.30;99.90;;;;;;5039499;28;20053;-63
2023/08/17 12:01:15;;;;;;;2.05;1.05;;;23.40;99.90;;;;;;5047067;28;20489;-63
2023/08/17 12:03:44;;;;;;;3.63;0.95;;;23.70;99.90;;;;;;5047609;28;20048;-64
2023/08/17 12:06:14;;;;;;;5.55;1.13;;;23.90;99.90;;;;;;5044987;28;20513;-63
2023/08/17 12:08:49;;;;;;;6.88;1.20;;;24.00;99.90;;;;;;5047675;28;20049;-64
2023/08/17 12:11:18;;;;;;;8.32;1.42;;;24.20;99.90;;;;;;5047465;28;20619;-63
2023/08/17 12:13:53;;;;;;;6.80;1.35;;;24.30;99.90;;;;;;5047909;28;20053;-64
2023/08/17 12:16:22;;;;;;;5.38;1.70;;;24.40;99.90;;;;;;5047900;28;20036;-64
2023/08/17 12:18:51;;;;;;;3.60;0.87;;;24.30;99.90;;;;;;5045999;28;20049;-63
2023/08/17 12:21:21;;;;;;;2.85;0.93;;;24.70;99.90;;;;;;5042356;28;20052;-63
2023/08/17 12:23:49;;;;;;;4.50;1.10;;;24.90;99.90;;;;;;5051095;28;20375;-63
2023/08/17 12:26:21;;;;;;;4.35;0.93;;;25.00;99.90;;;;;;5027991;28;20046;-63
2023/08/17 12:29:02;;;;;;;6.13;1.77;;;24.90;99.90;;;;;;5046117;28;20389;-64
2023/08/17 12:31:30;;;;;;;2.10;1.15;;;24.80;99.90;;;;;;5031650;28;20055;-65
2023/08/17 12:34:07;;;;;;;5.97;1.00;;;24.80;99.90;;;;;;5047934;28;20052;-64
2023/08/17 12:36:37;;;;;;;2.47;1.00;;;24.80;99.90;;;;;;5049267;28;20047;-64
2023/08/17 12:39:08;;;;;;;3.28;1.08;;;25.00;99.90;;;;;;5049988;28;20404;-65
2023/08/17 12:41:36;;;;;;;4.07;1.50;;;25.40;99.90;;;;;;5032215;28;20053;-64
2023/08/17 12:44:04;;;;;;;8.88;1.30;;;25.60;99.10;;;;;;5047151;28;20421;-65
2023/08/17 12:46:34;;;;;;;5.40;1.23;;;25.60;99.40;;;;;;5044236;28;20383;-64
2023/08/17 12:49:02;;;;;;;3.38;1.40;;;25.40;98.80;;;;;;5049194;28;20060;-65
2023/08/17 12:51:30;;;;;;;4.47;0.90;;;25.20;99.20;;;;;;5065798;28;20045;-64
2023/08/17 12:53:58;;;;;;;8.60;1.00;;;25.00;99.30;;;;;;5071201;28;20041;-64